createdAt,value
2017-12-05T00:01:54.334Z,7.60
2017-12-05T00:04:20.659Z,7.60
2017-12-05T00:06:47.729Z,7.60
2017-12-05T00:09:14.996Z,7.50
2017-12-05T00:11:41.369Z,7.20
2017-12-05T00:14:07.739Z,7.50
2017-12-05T00:16:34.813Z,7.60
2017-12-05T00:19:01.959Z,7.50
2017-12-05T00:21:29.067Z,7.50
2017-12-05T00:23:56.144Z,7.50
2017-12-05T00:26:22.577Z,7.50
2017-12-05T00:28:48.994Z,7.90
2017-12-05T00:31:15.348Z,7.70
2017-12-05T00:33:42.460Z,7.30
2017-12-05T00:36:08.823Z,7.30
2017-12-05T00:38:35.156Z,7.20
2017-12-05T00:41:01.485Z,7.40
2017-12-05T00:43:28.585Z,7.40
2017-12-05T00:45:54.964Z,7.40
2017-12-05T00:48:21.272Z,7.40
2017-12-05T00:50:47.644Z,7.50
2017-12-05T00:53:13.958Z,7.40
2017-12-05T00:55:41.896Z,7.60
2017-12-05T00:58:08.194Z,7.60
2017-12-05T01:00:34.512Z,7.40
2017-12-05T01:03:01.592Z,7.50
2017-12-05T01:05:27.884Z,7.40
2017-12-05T01:07:54.185Z,7.20
2017-12-05T01:10:21.316Z,7.20
2017-12-05T01:12:47.675Z,7.20
2017-12-05T01:15:14.717Z,7.40
2017-12-05T01:17:41.050Z,7.40
2017-12-05T01:20:07.384Z,7.10
2017-12-05T01:22:33.693Z,7.40
2017-12-05T01:24:59.964Z,7.40
2017-12-05T01:27:26.293Z,7.30
2017-12-05T01:29:52.599Z,7.30
2017-12-05T01:32:19.638Z,7.40
2017-12-05T01:34:45.960Z,7.40
2017-12-05T01:37:12.297Z,7.30
2017-12-05T01:39:38.615Z,7.50
2017-12-05T01:42:05.672Z,7.30
2017-12-05T01:44:31.980Z,7.30
2017-12-05T01:46:58.321Z,7.30
2017-12-05T01:49:24.681Z,7.30
2017-12-05T01:51:50.994Z,7.40
2017-12-05T01:54:17.320Z,7.50
2017-12-05T01:56:43.608Z,7.40
2017-12-05T01:59:12.649Z,7.40
2017-12-05T02:01:39.711Z,7.30
2017-12-05T02:04:06.017Z,7.30
2017-12-05T02:06:32.332Z,7.30
2017-12-05T02:08:58.631Z,7.30
2017-12-05T02:11:24.936Z,7.30
2017-12-05T02:13:51.275Z,7.30
2017-12-05T02:16:17.567Z,7.20
2017-12-05T02:18:44.646Z,7.20
2017-12-05T02:21:11.798Z,7.30
2017-12-05T02:23:38.127Z,7.30
2017-12-05T02:26:05.176Z,7.00
2017-12-05T02:28:31.488Z,7.10
2017-12-05T02:30:57.811Z,7.10
2017-12-05T02:33:24.120Z,7.00
2017-12-05T02:35:50.408Z,7.00
2017-12-05T02:38:16.760Z,7.10
2017-12-05T02:40:56.108Z,6.90
2017-12-05T02:43:22.452Z,6.90
2017-12-05T02:45:48.828Z,6.90
2017-12-05T02:48:15.164Z,7.10
2017-12-05T02:50:41.472Z,7.00
2017-12-05T02:53:07.844Z,7.00
2017-12-05T02:55:34.174Z,7.00
2017-12-05T02:58:01.231Z,7.10
2017-12-05T03:00:29.850Z,7.10
2017-12-05T03:02:56.280Z,6.90
2017-12-05T03:05:22.667Z,7.10
2017-12-05T03:07:49.022Z,6.90
2017-12-05T03:10:15.448Z,6.80
2017-12-05T03:12:42.533Z,6.90
2017-12-05T03:15:08.844Z,6.90
2017-12-05T03:17:35.922Z,7.00
2017-12-05T03:20:02.250Z,6.90
2017-12-05T03:22:28.606Z,6.90
2017-12-05T03:24:54.894Z,6.90
2017-12-05T03:27:21.191Z,7.00
2017-12-05T03:29:47.503Z,7.00
2017-12-05T03:32:13.813Z,6.90
2017-12-05T03:34:40.849Z,6.90
2017-12-05T03:37:08.903Z,6.90
2017-12-05T03:39:35.238Z,6.80
2017-12-05T03:42:03.289Z,6.80
2017-12-05T03:44:30.351Z,6.80
2017-12-05T03:46:57.396Z,6.90
2017-12-05T03:49:23.773Z,6.90
2017-12-05T03:51:49.886Z,6.80
2017-12-05T03:54:16.245Z,6.80
2017-12-05T03:56:42.560Z,6.60
2017-12-05T03:59:08.859Z,6.80
2017-12-05T04:01:35.929Z,6.90
2017-12-05T04:04:02.664Z,6.90
2017-12-05T04:06:29.632Z,7.00
2017-12-05T04:08:55.749Z,7.00
2017-12-05T04:11:25.154Z,6.90
2017-12-05T04:13:51.264Z,6.80
2017-12-05T04:16:17.364Z,6.70
2017-12-05T04:18:44.219Z,6.90
2017-12-05T04:21:11.073Z,6.90
2017-12-05T04:23:37.946Z,6.80
2017-12-05T04:26:04.076Z,6.80
2017-12-05T04:28:31.004Z,7.00
2017-12-05T04:30:57.112Z,7.00
2017-12-05T04:33:23.261Z,7.00
2017-12-05T04:35:49.548Z,6.90
2017-12-05T04:38:16.414Z,6.90
2017-12-05T04:40:43.275Z,6.90
2017-12-05T04:43:10.133Z,6.90
2017-12-05T04:45:36.246Z,6.80
2017-12-05T04:48:02.410Z,6.90
2017-12-05T04:50:28.612Z,6.90
2017-12-05T04:52:55.092Z,6.90
2017-12-05T04:55:21.216Z,6.90
2017-12-05T04:57:47.356Z,6.90
2017-12-05T05:00:13.829Z,6.80
2017-12-05T05:02:39.947Z,6.90
2017-12-05T05:05:06.071Z,6.90
2017-12-05T05:07:32.208Z,6.70
2017-12-05T05:09:58.318Z,6.80
2017-12-05T05:12:24.416Z,6.60
2017-12-05T05:14:50.527Z,6.80
2017-12-05T05:17:16.661Z,6.80
2017-12-05T05:19:42.809Z,7.10
2017-12-05T05:22:09.137Z,6.70
2017-12-05T05:24:36.172Z,6.70
2017-12-05T05:27:02.292Z,6.50
2017-12-05T05:29:28.420Z,6.60
2017-12-05T05:31:54.809Z,6.70
2017-12-05T05:34:21.138Z,6.70
2017-12-05T05:36:47.424Z,6.80
2017-12-05T05:39:13.903Z,6.70
2017-12-05T05:41:40.248Z,6.70
2017-12-05T05:44:06.601Z,6.60
2017-12-05T05:46:33.318Z,6.50
2017-12-05T05:49:00.408Z,6.70
2017-12-05T05:51:27.416Z,6.70
2017-12-05T05:53:53.728Z,6.60
2017-12-05T05:56:20.405Z,6.70
2017-12-05T05:58:46.821Z,6.80
2017-12-05T06:01:13.181Z,6.80
2017-12-05T06:03:39.504Z,6.80
2017-12-05T06:06:05.859Z,6.70
2017-12-05T06:08:32.148Z,6.80
2017-12-05T06:10:58.461Z,6.70
2017-12-05T06:13:24.768Z,6.60
2017-12-05T06:15:52.001Z,6.60
2017-12-05T06:18:18.337Z,6.60
2017-12-05T06:20:44.786Z,6.60
2017-12-05T06:23:11.139Z,6.30
2017-12-05T06:25:37.548Z,6.80
2017-12-05T06:28:04.584Z,6.70
2017-12-05T06:30:30.892Z,6.70
2017-12-05T06:32:57.319Z,6.80
2017-12-05T06:35:23.640Z,6.80
2017-12-05T06:37:50.692Z,6.70
2017-12-05T06:40:17.715Z,6.60
2017-12-05T06:42:43.836Z,6.60
2017-12-05T06:45:10.208Z,6.60
2017-12-05T06:47:36.623Z,6.80
2017-12-05T06:50:02.961Z,7.00
2017-12-05T06:52:29.288Z,6.70
2017-12-05T06:54:56.365Z,6.70
2017-12-05T06:57:22.698Z,6.70
2017-12-05T06:59:49.867Z,6.60
2017-12-05T07:02:16.180Z,6.60
2017-12-05T07:04:43.694Z,6.70
2017-12-05T07:07:10.741Z,6.60
2017-12-05T07:09:36.977Z,6.60
2017-12-05T07:12:03.165Z,6.70
2017-12-05T07:14:29.486Z,6.80
2017-12-05T07:16:57.865Z,6.90
2017-12-05T07:19:24.920Z,6.70
2017-12-05T07:21:51.048Z,6.70
2017-12-05T07:24:17.401Z,6.90
2017-12-05T07:26:43.726Z,7.00
2017-12-05T07:29:10.035Z,6.80
2017-12-05T07:31:36.232Z,6.90
2017-12-05T07:34:02.537Z,7.00
2017-12-05T07:36:28.729Z,7.00
2017-12-05T07:38:55.053Z,6.80
2017-12-05T07:41:21.383Z,6.90
2017-12-05T07:43:47.735Z,6.90
2017-12-05T07:46:14.052Z,6.90
2017-12-05T07:48:40.460Z,6.90
2017-12-05T07:51:06.824Z,6.90
2017-12-05T07:53:33.219Z,6.90
2017-12-05T07:55:59.534Z,6.90
2017-12-05T07:58:26.729Z,7.00
2017-12-05T08:00:56.622Z,6.80
2017-12-05T08:03:22.968Z,6.90
2017-12-05T08:05:50.026Z,6.80
2017-12-05T08:08:16.146Z,6.80
2017-12-05T08:10:42.264Z,6.90
2017-12-05T08:13:08.451Z,7.00
2017-12-05T08:15:34.561Z,6.90
2017-12-05T08:18:02.924Z,6.90
2017-12-05T08:20:29.164Z,6.90
2017-12-05T08:22:55.493Z,6.80
2017-12-05T08:25:22.577Z,6.90
2017-12-05T08:27:48.885Z,6.90
2017-12-05T08:30:15.208Z,6.90
2017-12-05T08:32:41.534Z,6.90
2017-12-05T08:35:09.620Z,7.00
2017-12-05T08:37:36.003Z,7.10
2017-12-05T08:40:03.081Z,7.10
2017-12-05T08:42:30.144Z,7.10
2017-12-05T08:44:56.517Z,7.00
2017-12-05T08:47:23.601Z,7.10
2017-12-05T08:49:54.661Z,7.00
2017-12-05T08:52:21.049Z,7.00
2017-12-05T08:54:47.475Z,6.90
2017-12-05T08:57:13.796Z,7.00
2017-12-05T08:59:40.136Z,7.10
2017-12-05T09:02:06.443Z,7.10
2017-12-05T09:04:32.768Z,7.10
2017-12-05T09:07:01.092Z,7.10
2017-12-05T09:09:27.403Z,7.20
2017-12-05T09:11:54.476Z,7.20
2017-12-05T09:14:20.798Z,7.20
2017-12-05T09:16:47.149Z,7.20
2017-12-05T09:19:13.465Z,7.20
2017-12-05T09:21:39.792Z,7.10
2017-12-05T09:24:07.830Z,7.20
2017-12-05T09:26:34.131Z,7.00
2017-12-05T09:29:00.453Z,7.00
2017-12-05T09:31:26.826Z,7.10
2017-12-05T09:33:53.128Z,7.10
2017-12-05T09:36:19.515Z,7.10
2017-12-05T09:38:45.833Z,7.10
2017-12-05T09:41:34.255Z,7.10
2017-12-05T09:44:00.608Z,7.10
2017-12-05T09:46:27.963Z,7.00
2017-12-05T09:48:55.048Z,6.90
2017-12-05T09:51:24.775Z,6.90
2017-12-05T09:53:51.865Z,7.20
2017-12-05T09:56:18.209Z,7.20
2017-12-05T09:58:44.555Z,7.20
2017-12-05T10:01:10.935Z,7.20
2017-12-05T10:03:37.401Z,7.20
2017-12-05T10:06:04.578Z,7.10
2017-12-05T10:08:34.700Z,7.10
2017-12-05T10:11:00.838Z,7.20
2017-12-05T10:13:26.977Z,7.20
2017-12-05T10:15:53.295Z,7.00
2017-12-05T10:18:19.718Z,7.10
2017-12-05T10:20:46.058Z,7.10
2017-12-05T10:23:12.381Z,7.00
2017-12-05T10:25:42.818Z,7.00
2017-12-05T10:28:09.189Z,7.20
2017-12-05T10:30:35.582Z,7.20
2017-12-05T10:33:01.949Z,7.30
2017-12-05T10:35:28.306Z,7.30
2017-12-05T10:37:54.757Z,7.30
2017-12-05T10:40:21.820Z,7.40
2017-12-05T10:42:52.706Z,7.40
2017-12-05T10:45:19.093Z,7.40
2017-12-05T10:47:45.220Z,7.70
2017-12-05T10:50:11.343Z,7.30
2017-12-05T10:52:38.199Z,7.40
2017-12-05T10:55:04.392Z,7.40
2017-12-05T10:57:30.614Z,7.60
2017-12-05T11:00:03.257Z,7.30
2017-12-05T11:02:29.450Z,7.30
2017-12-05T11:04:55.632Z,7.50
2017-12-05T11:07:21.768Z,7.30
2017-12-05T11:09:47.895Z,7.30
2017-12-05T11:12:14.114Z,7.30
2017-12-05T11:14:40.281Z,7.30
2017-12-05T11:17:08.398Z,7.20
2017-12-05T11:19:34.828Z,7.20
2017-12-05T11:22:01.221Z,7.30
2017-12-05T11:24:27.520Z,7.40
2017-12-05T11:26:53.934Z,7.30
2017-12-05T11:29:20.136Z,7.30
2017-12-05T11:31:46.499Z,7.30
2017-12-05T11:34:18.703Z,7.20
2017-12-05T11:36:44.833Z,7.40
2017-12-05T11:39:10.993Z,7.30
2017-12-05T11:41:37.141Z,7.30
2017-12-05T11:44:03.329Z,7.30
2017-12-05T11:46:29.515Z,7.50
2017-12-05T11:48:56.403Z,7.50
2017-12-05T11:51:24.356Z,7.50
2017-12-05T11:53:50.748Z,7.60
2017-12-05T11:56:17.854Z,7.60
2017-12-05T11:58:43.968Z,7.60
2017-12-05T12:01:10.370Z,7.60
2017-12-05T12:03:37.249Z,7.40
2017-12-05T12:08:34.717Z,7.50
2017-12-05T12:11:00.899Z,7.50
2017-12-05T12:13:27.853Z,7.50
2017-12-05T12:15:54.773Z,7.50
2017-12-05T12:18:20.905Z,7.50
2017-12-05T12:20:47.048Z,7.40
2017-12-05T12:23:16.104Z,7.30
2017-12-05T12:25:42.228Z,7.40
2017-12-05T12:28:08.353Z,7.60
2017-12-05T12:30:34.468Z,7.60
2017-12-05T12:33:00.596Z,7.50
2017-12-05T12:35:26.721Z,7.60
2017-12-05T12:37:53.592Z,7.60
2017-12-05T12:40:25.672Z,7.40
2017-12-05T12:42:51.804Z,7.40
2017-12-05T12:45:17.941Z,7.50
2017-12-05T12:47:44.070Z,7.50
2017-12-05T12:50:10.956Z,7.50
2017-12-05T12:52:37.157Z,7.50
2017-12-05T12:55:03.328Z,7.60
2017-12-05T12:57:29.484Z,7.70
2017-12-05T12:59:59.074Z,7.40
2017-12-05T13:02:25.416Z,7.60
2017-12-05T13:04:51.885Z,7.60
2017-12-05T13:07:18.909Z,7.80
2017-12-05T13:09:45.160Z,7.70
2017-12-05T13:12:11.306Z,7.60
2017-12-05T13:14:37.718Z,7.60
2017-12-05T13:17:11.394Z,7.70
2017-12-05T13:19:38.378Z,7.60
2017-12-05T13:22:05.234Z,7.70
2017-12-05T13:24:31.368Z,7.70
2017-12-05T13:26:57.667Z,7.70
2017-12-05T13:29:23.818Z,7.70
2017-12-05T13:31:53.505Z,7.60
2017-12-05T13:34:19.645Z,7.60
2017-12-05T13:36:46.573Z,7.50
2017-12-05T13:39:12.720Z,7.50
2017-12-05T13:41:38.926Z,7.50
2017-12-05T13:44:05.075Z,7.60
2017-12-05T13:46:32.064Z,7.60
2017-12-05T13:48:59.892Z,7.60
2017-12-05T13:51:26.295Z,7.60
2017-12-05T13:53:52.798Z,7.60
2017-12-05T13:56:19.168Z,7.60
2017-12-05T13:58:45.560Z,7.70
2017-12-05T14:01:11.908Z,7.50
2017-12-05T14:03:38.395Z,7.60
2017-12-05T14:06:06.975Z,7.70
2017-12-05T14:08:33.352Z,7.70
2017-12-05T14:10:59.758Z,7.60
2017-12-05T14:13:26.097Z,7.60
2017-12-05T14:15:52.458Z,7.70
2017-12-05T14:18:19.531Z,7.60
2017-12-05T14:20:49.040Z,7.60
2017-12-05T14:23:15.245Z,7.60
2017-12-05T14:25:41.393Z,7.60
2017-12-05T14:28:07.677Z,7.50
2017-12-05T14:30:34.586Z,7.60
2017-12-05T14:33:00.767Z,7.50
2017-12-05T14:35:27.626Z,7.60
2017-12-05T14:37:53.828Z,7.60
2017-12-05T14:40:27.485Z,7.60
2017-12-05T14:42:53.632Z,7.60
2017-12-05T14:45:19.812Z,7.60
2017-12-05T14:47:46.717Z,7.60
2017-12-05T14:50:13.582Z,7.50
2017-12-05T14:52:40.489Z,7.60
2017-12-05T14:55:06.693Z,7.80
2017-12-05T14:57:34.349Z,7.60
2017-12-05T15:00:00.495Z,7.50
2017-12-05T15:02:26.671Z,7.50
2017-12-05T15:04:52.822Z,7.50
2017-12-05T15:07:19.760Z,7.60
2017-12-05T15:09:46.010Z,7.60
2017-12-05T15:12:30.319Z,7.60
2017-12-05T15:14:59.729Z,7.60
2017-12-05T15:17:26.715Z,7.60
2017-12-05T15:19:53.847Z,7.70
2017-12-05T15:22:20.017Z,7.70
2017-12-05T15:24:46.205Z,7.60
2017-12-05T15:27:12.581Z,7.60
2017-12-05T15:29:38.717Z,7.60
2017-12-05T15:32:05.606Z,7.60
2017-12-05T15:34:31.834Z,7.60
2017-12-05T15:36:58.013Z,7.80
2017-12-05T15:39:24.146Z,7.60
2017-12-05T15:41:50.481Z,7.60
2017-12-05T15:44:17.846Z,7.60
2017-12-05T15:46:44.018Z,7.70
2017-12-05T15:49:10.140Z,7.60
2017-12-05T15:51:36.257Z,7.70
2017-12-05T15:54:02.402Z,7.70
2017-12-05T15:56:28.677Z,7.70
2017-12-05T15:58:55.567Z,7.70
2017-12-05T16:01:22.467Z,7.80
2017-12-05T16:03:49.393Z,7.70
2017-12-05T16:06:15.590Z,7.70
2017-12-05T16:08:42.545Z,7.70
2017-12-05T16:11:08.782Z,7.90
2017-12-05T16:13:34.951Z,7.60
2017-12-05T16:16:01.099Z,7.60
2017-12-05T16:18:27.230Z,7.60
2017-12-05T16:20:53.367Z,7.70
2017-12-05T16:23:19.530Z,7.70
2017-12-05T16:25:45.671Z,7.70
2017-12-05T16:28:12.003Z,7.60
2017-12-05T16:30:38.259Z,7.70
2017-12-05T16:33:05.175Z,7.70
2017-12-05T16:35:33.957Z,7.80
2017-12-05T16:38:00.121Z,7.80
2017-12-05T16:40:26.339Z,7.80
2017-12-05T16:42:53.217Z,7.70
2017-12-05T16:45:19.380Z,7.70
2017-12-05T16:47:45.526Z,7.70
2017-12-05T16:50:11.748Z,7.60
2017-12-05T16:52:38.018Z,7.40
2017-12-05T16:55:04.188Z,7.70
2017-12-05T16:57:31.089Z,7.60
2017-12-05T16:59:57.205Z,7.60
2017-12-05T17:02:23.837Z,7.70
2017-12-05T17:04:50.864Z,7.80
2017-12-05T17:07:17.165Z,7.80
2017-12-05T17:09:44.118Z,7.80
2017-12-05T17:12:10.327Z,7.80
2017-12-05T17:14:37.441Z,7.60
2017-12-05T17:17:03.768Z,7.60
2017-12-05T17:19:30.777Z,7.70
2017-12-05T17:21:56.938Z,7.70
2017-12-05T17:24:23.072Z,7.50
2017-12-05T17:26:49.375Z,7.40
2017-12-05T17:29:15.507Z,7.50
2017-12-05T17:31:42.425Z,7.60
2017-12-05T17:34:08.600Z,7.60
2017-12-05T17:36:34.751Z,7.60
2017-12-05T17:39:00.887Z,7.70
2017-12-05T17:41:27.024Z,7.60
2017-12-05T17:43:57.790Z,7.60
2017-12-05T17:46:23.994Z,7.60
2017-12-05T17:48:50.200Z,7.70
2017-12-05T17:51:16.366Z,7.70
2017-12-05T17:53:42.551Z,7.70
2017-12-05T17:56:09.471Z,7.60
2017-12-05T17:58:35.606Z,7.70
2017-12-05T18:01:05.532Z,7.60
2017-12-05T18:03:33.736Z,7.40
2017-12-05T18:05:59.865Z,7.70
2017-12-05T18:08:26.036Z,7.50
2017-12-05T18:10:53.005Z,7.60
2017-12-05T18:13:19.146Z,7.60
2017-12-05T18:15:45.288Z,7.50
2017-12-05T18:18:15.326Z,7.70
2017-12-05T18:20:41.454Z,7.50
2017-12-05T18:23:08.333Z,7.70
2017-12-05T18:25:34.503Z,7.70
2017-12-05T18:28:00.630Z,7.60
2017-12-05T18:30:27.520Z,7.50
2017-12-05T18:32:54.417Z,7.60
2017-12-05T18:35:20.540Z,7.60
2017-12-05T18:37:49.996Z,7.60
2017-12-05T18:40:16.243Z,7.60
2017-12-05T18:42:43.168Z,7.60
2017-12-05T18:45:09.335Z,7.60
2017-12-05T18:47:35.465Z,7.60
2017-12-05T18:50:01.596Z,7.60
2017-12-05T18:52:27.717Z,7.60
2017-12-05T18:54:54.702Z,7.60
2017-12-05T18:57:24.699Z,7.60
2017-12-05T18:59:50.960Z,7.60
2017-12-05T19:02:17.148Z,7.60
2017-12-05T19:04:43.336Z,7.50
2017-12-05T19:07:09.469Z,7.70
2017-12-05T19:09:35.620Z,7.60
2017-12-05T19:12:01.749Z,7.50
2017-12-05T19:14:27.994Z,7.60
2017-12-05T19:16:57.291Z,7.50
2017-12-05T19:19:23.596Z,7.50
2017-12-05T19:21:49.765Z,7.60
2017-12-05T19:24:15.922Z,7.60
2017-12-05T19:26:42.090Z,7.50
2017-12-05T19:29:09.288Z,7.60
2017-12-05T19:31:35.407Z,7.50
2017-12-05T19:34:01.538Z,7.60
2017-12-05T19:36:33.911Z,7.60
2017-12-05T19:39:00.069Z,7.60
2017-12-05T19:41:26.202Z,7.60
2017-12-05T19:43:52.310Z,7.60
2017-12-05T19:46:18.502Z,7.70
2017-12-05T19:48:44.654Z,7.50
2017-12-05T19:51:10.784Z,7.60
2017-12-05T19:53:40.755Z,7.60
2017-12-05T19:56:06.913Z,7.60
2017-12-05T19:58:33.761Z,7.60
2017-12-05T20:00:59.944Z,7.60
2017-12-05T20:03:26.834Z,7.80
2017-12-05T20:05:53.012Z,8.30
2017-12-05T20:08:19.158Z,7.70
2017-12-05T20:10:45.308Z,7.70
2017-12-05T20:13:13.379Z,7.70
2017-12-05T20:15:39.525Z,7.60
2017-12-05T20:18:05.688Z,7.60
2017-12-05T20:20:31.814Z,7.60
2017-12-05T20:22:58.023Z,7.60
2017-12-05T20:25:24.201Z,7.60
2017-12-05T20:27:51.245Z,7.70
2017-12-05T20:30:20.260Z,7.70
2017-12-05T20:32:46.423Z,7.80
2017-12-05T20:35:12.566Z,7.80
2017-12-05T20:37:38.701Z,7.70
2017-12-05T20:40:04.847Z,7.60
2017-12-05T20:42:30.991Z,7.80
2017-12-05T20:44:57.145Z,7.70
2017-12-05T20:47:24.053Z,7.60
2017-12-05T20:49:51.105Z,7.60
2017-12-05T20:52:17.959Z,7.50
2017-12-05T20:54:44.816Z,7.50
2017-12-05T20:57:14.364Z,7.50
2017-12-05T20:59:40.632Z,7.60
2017-12-05T21:02:06.778Z,7.60
2017-12-05T21:04:32.884Z,7.70
2017-12-05T21:06:59.012Z,7.70
2017-12-05T21:09:25.144Z,8.00
2017-12-05T21:11:51.374Z,8.00
2017-12-05T21:14:17.471Z,7.70
2017-12-05T21:16:43.571Z,7.70
2017-12-05T21:19:09.749Z,7.70
2017-12-05T21:21:35.984Z,7.60
2017-12-05T21:24:02.119Z,7.70
2017-12-05T21:26:30.508Z,7.60
2017-12-05T21:28:57.468Z,7.80
2017-12-05T21:31:23.583Z,7.70
2017-12-05T21:33:50.476Z,7.50
2017-12-05T21:36:16.618Z,7.50
2017-12-05T21:38:46.145Z,7.60
2017-12-05T21:41:12.265Z,7.60
2017-12-05T21:43:39.374Z,7.70
2017-12-05T21:46:05.537Z,7.70
2017-12-05T21:48:31.685Z,7.60
2017-12-05T21:50:57.895Z,7.70
2017-12-05T21:53:24.212Z,7.70
2017-12-05T21:55:51.260Z,7.60
2017-12-05T21:58:18.133Z,7.60
2017-12-05T22:00:44.332Z,7.60
2017-12-05T22:03:10.606Z,7.60
2017-12-05T22:05:37.456Z,7.60
2017-12-05T22:08:03.661Z,7.60
2017-12-05T22:10:29.931Z,7.60
2017-12-05T22:12:56.078Z,7.50
2017-12-05T22:15:22.685Z,7.80
2017-12-05T22:17:48.784Z,7.50
2017-12-05T22:20:15.657Z,7.50
2017-12-05T22:22:43.541Z,7.60
2017-12-05T22:25:09.696Z,7.60
2017-12-05T22:27:35.927Z,7.60
2017-12-05T22:30:02.848Z,7.70
2017-12-05T22:32:28.989Z,8.00
2017-12-05T22:34:56.889Z,7.60
2017-12-05T22:37:23.751Z,7.60
2017-12-05T22:39:50.621Z,7.70
2017-12-05T22:42:16.814Z,7.60
2017-12-05T22:44:43.747Z,7.50
2017-12-05T22:47:09.866Z,7.50
2017-12-05T22:49:37.728Z,7.50
2017-12-05T22:52:04.597Z,7.60
2017-12-05T22:54:31.482Z,7.50
2017-12-05T22:56:57.677Z,7.50
2017-12-05T22:59:23.789Z,7.40
2017-12-05T23:01:49.903Z,7.40
2017-12-05T23:04:16.029Z,7.50
2017-12-05T23:06:42.153Z,7.60
2017-12-05T23:09:10.973Z,7.60
2017-12-05T23:11:37.283Z,7.40
2017-12-05T23:14:04.202Z,7.50
2017-12-05T23:16:30.326Z,7.50
2017-12-05T23:18:56.625Z,7.50
2017-12-05T23:21:22.733Z,7.60
2017-12-05T23:23:49.121Z,7.70
2017-12-05T23:26:15.286Z,7.60
2017-12-05T23:28:42.141Z,7.60
2017-12-05T23:31:09.018Z,7.60
2017-12-05T23:33:35.856Z,7.60
2017-12-05T23:36:02.739Z,7.60
2017-12-05T23:38:28.830Z,7.60
2017-12-05T23:40:54.921Z,7.60
2017-12-05T23:43:21.185Z,7.60
2017-12-05T23:45:47.380Z,7.50
2017-12-05T23:48:14.300Z,7.50
2017-12-05T23:50:40.488Z,7.50
2017-12-05T23:53:06.593Z,7.50
2017-12-05T23:55:34.365Z,7.50
2017-12-05T23:58:00.476Z,7.50
